sensor_id;sensor_type;location;lat;lon;timestamp;temperature;humidity
5218;DHT22;26539;51.064;6.346;2022-11-22T00:02:17;7.30;1.00
5218;DHT22;26539;51.064;6.346;2022-11-22T00:07:54;7.40;1.00
5218;DHT22;26539;51.064;6.346;2022-11-22T00:10:30;7.40;1.00
5218;DHT22;26539;51.064;6.346;2022-11-22T00:13:16;7.50;1.00
5218;DHT22;26539;51.064;6.346;2022-11-22T00:19:12;7.50;1.00
5218;DHT22;26539;51.064;6.346;2022-11-22T00:21:38;7.60;1.00
5218;DHT22;26539;51.064;6.346;2022-11-22T00:24:04;7.60;1.00
5218;DHT22;26539;51.064;6.346;2022-11-22T00:26:47;7.60;1.00
5218;DHT22;26539;51.064;6.346;2022-11-22T00:29:23;7.70;1.00
5218;DHT22;26539;51.064;6.346;2022-11-22T00:35:10;7.70;1.00
5218;DHT22;26539;51.064;6.346;2022-11-22T00:37:42;7.80;1.00
5218;DHT22;26539;51.064;6.346;2022-11-22T00:40:37;7.80;1.00
5218;DHT22;26539;51.064;6.346;2022-11-22T00:43:28;7.80;1.00
5218;DHT22;26539;51.064;6.346;2022-11-22T00:46:33;7.80;1.00
5218;DHT22;26539;51.064;6.346;2022-11-22T00:52:31;7.80;1.00
5218;DHT22;26539;51.064;6.346;2022-11-22T00:54:59;7.80;1.00
5218;DHT22;26539;51.064;6.346;2022-11-22T01:00:49;7.70;1.00
5218;DHT22;26539;51.064;6.346;2022-11-22T01:06:33;7.60;1.00
5218;DHT22;26539;51.064;6.346;2022-11-22T01:09:39;7.60;1.00
5218;DHT22;26539;51.064;6.346;2022-11-22T01:12:10;7.50;1.00
5218;DHT22;26539;51.064;6.346;2022-11-22T01:14:36;7.50;1.00
5218;DHT22;26539;51.064;6.346;2022-11-22T01:17:12;7.50;1.00
5218;DHT22;26539;51.064;6.346;2022-11-22T01:26:08;7.40;1.00
5218;DHT22;26539;51.064;6.346;2022-11-22T01:29:02;7.30;1.00
5218;DHT22;26539;51.064;6.346;2022-11-22T01:31:42;7.30;1.00
5218;DHT22;26539;51.064;6.346;2022-11-22T01:34:07;7.30;1.00
5218;DHT22;26539;51.064;6.346;2022-11-22T01:36:45;7.30;1.00
5218;DHT22;26539;51.064;6.346;2022-11-22T01:39:11;7.30;1.00
5218;DHT22;26539;51.064;6.346;2022-11-22T01:41:48;7.20;1.00
5218;DHT22;26539;51.064;6.346;2022-11-22T01:44:27;7.20;1.00
5218;DHT22;26539;51.064;6.346;2022-11-22T01:46:59;7.20;1.00
5218;DHT22;26539;51.064;6.346;2022-11-22T01:49:45;7.20;1.00
5218;DHT22;26539;51.064;6.346;2022-11-22T01:52:16;7.20;1.00
5218;DHT22;26539;51.064;6.346;2022-11-22T01:54:49;7.20;1.00
5218;DHT22;26539;51.064;6.346;2022-11-22T01:57:23;7.20;1.00
5218;DHT22;26539;51.064;6.346;2022-11-22T01:59:57;7.20;1.00
5218;DHT22;26539;51.064;6.346;2022-11-22T02:02:26;7.10;1.00
5218;DHT22;26539;51.064;6.346;2022-11-22T02:04:54;7.10;1.00
5218;DHT22;26539;51.064;6.346;2022-11-22T02:09:51;7.10;1.00
5218;DHT22;26539;51.064;6.346;2022-11-22T02:12:19;7.10;1.00
5218;DHT22;26539;51.064;6.346;2022-11-22T02:14:48;7.10;1.00
5218;DHT22;26539;51.064;6.346;2022-11-22T02:17:42;7.10;1.00
5218;DHT22;26539;51.064;6.346;2022-11-22T02:20:09;7.00;1.00
5218;DHT22;26539;51.064;6.346;2022-11-22T02:22:43;7.00;1.00
5218;DHT22;26539;51.064;6.346;2022-11-22T02:25:31;7.00;1.00
5218;DHT22;26539;51.064;6.346;2022-11-22T02:28:00;7.00;1.00
5218;DHT22;26539;51.064;6.346;2022-11-22T02:30:25;7.00;1.00
5218;DHT22;26539;51.064;6.346;2022-11-22T02:32:56;7.00;1.00
5218;DHT22;26539;51.064;6.346;2022-11-22T02:35:27;7.00;1.00
5218;DHT22;26539;51.064;6.346;2022-11-22T02:40:44;6.90;1.00
5218;DHT22;26539;51.064;6.346;2022-11-22T02:43:16;6.90;1.00
5218;DHT22;26539;51.064;6.346;2022-11-22T02:45:43;6.90;1.00
5218;DHT22;26539;51.064;6.346;2022-11-22T02:48:12;6.90;1.00
5218;DHT22;26539;51.064;6.346;2022-11-22T02:50:38;6.90;1.00
5218;DHT22;26539;51.064;6.346;2022-11-22T02:53:05;6.90;1.00
5218;DHT22;26539;51.064;6.346;2022-11-22T02:55:33;6.90;1.00
5218;DHT22;26539;51.064;6.346;2022-11-22T02:57:59;6.90;1.00
5218;DHT22;26539;51.064;6.346;2022-11-22T03:00:25;6.90;1.00
5218;DHT22;26539;51.064;6.346;2022-11-22T03:02:51;6.90;1.00
5218;DHT22;26539;51.064;6.346;2022-11-22T03:05:19;6.90;1.00
5218;DHT22;26539;51.064;6.346;2022-11-22T03:07:47;6.90;1.00
5218;DHT22;26539;51.064;6.346;2022-11-22T03:10:18;6.90;1.00
5218;DHT22;26539;51.064;6.346;2022-11-22T03:12:43;6.90;1.00
5218;DHT22;26539;51.064;6.346;2022-11-22T03:15:11;6.80;1.00
5218;DHT22;26539;51.064;6.346;2022-11-22T03:17:41;6.80;1.00
5218;DHT22;26539;51.064;6.346;2022-11-22T03:20:07;6.80;1.00
5218;DHT22;26539;51.064;6.346;2022-11-22T03:22:33;6.80;1.00
5218;DHT22;26539;51.064;6.346;2022-11-22T03:24:58;6.80;1.00
5218;DHT22;26539;51.064;6.346;2022-11-22T03:27:24;6.80;1.00
5218;DHT22;26539;51.064;6.346;2022-11-22T03:29:52;6.80;1.00
5218;DHT22;26539;51.064;6.346;2022-11-22T03:32:17;6.70;1.00
5218;DHT22;26539;51.064;6.346;2022-11-22T03:34:43;6.70;1.00
5218;DHT22;26539;51.064;6.346;2022-11-22T03:37:15;6.70;1.00
5218;DHT22;26539;51.064;6.346;2022-11-22T03:39:48;6.70;1.00
5218;DHT22;26539;51.064;6.346;2022-11-22T03:42:16;6.70;1.00
5218;DHT22;26539;51.064;6.346;2022-11-22T03:44:42;6.70;1.00
5218;DHT22;26539;51.064;6.346;2022-11-22T03:47:07;6.60;1.00
5218;DHT22;26539;51.064;6.346;2022-11-22T03:49:33;6.60;1.00
5218;DHT22;26539;51.064;6.346;2022-11-22T03:51:58;6.60;1.00
5218;DHT22;26539;51.064;6.346;2022-11-22T03:54:24;6.60;1.00
5218;DHT22;26539;51.064;6.346;2022-11-22T03:56:51;6.60;1.00
5218;DHT22;26539;51.064;6.346;2022-11-22T03:59:19;6.60;1.00
5218;DHT22;26539;51.064;6.346;2022-11-22T04:01:45;6.60;1.00
5218;DHT22;26539;51.064;6.346;2022-11-22T04:04:10;6.50;1.00
5218;DHT22;26539;51.064;6.346;2022-11-22T04:06:36;6.50;1.00
5218;DHT22;26539;51.064;6.346;2022-11-22T04:09:03;6.50;1.00
5218;DHT22;26539;51.064;6.346;2022-11-22T04:11:28;6.50;1.00
5218;DHT22;26539;51.064;6.346;2022-11-22T04:13:54;6.40;1.00
5218;DHT22;26539;51.064;6.346;2022-11-22T04:16:38;6.40;1.00
5218;DHT22;26539;51.064;6.346;2022-11-22T04:19:06;6.40;1.00
5218;DHT22;26539;51.064;6.346;2022-11-22T04:21:34;6.30;1.00
5218;DHT22;26539;51.064;6.346;2022-11-22T04:26:50;6.20;1.00
5218;DHT22;26539;51.064;6.346;2022-11-22T04:29:17;6.20;1.00
5218;DHT22;26539;51.064;6.346;2022-11-22T04:31:43;6.10;1.00
5218;DHT22;26539;51.064;6.346;2022-11-22T04:34:27;6.10;1.00
5218;DHT22;26539;51.064;6.346;2022-11-22T04:36:52;6.10;1.00
5218;DHT22;26539;51.064;6.346;2022-11-22T04:39:18;6.00;1.00
5218;DHT22;26539;51.064;6.346;2022-11-22T04:41:44;6.00;1.00
5218;DHT22;26539;51.064;6.346;2022-11-22T04:44:12;6.00;1.00
5218;DHT22;26539;51.064;6.346;2022-11-22T04:46:56;6.00;1.00
5218;DHT22;26539;51.064;6.346;2022-11-22T04:49:22;6.00;1.00
5218;DHT22;26539;51.064;6.346;2022-11-22T04:51:47;6.00;1.00
5218;DHT22;26539;51.064;6.346;2022-11-22T04:54:32;6.00;1.00
5218;DHT22;26539;51.064;6.346;2022-11-22T04:56:57;6.00;1.00
5218;DHT22;26539;51.064;6.346;2022-11-22T04:59:23;6.10;1.00
5218;DHT22;26539;51.064;6.346;2022-11-22T05:01:48;6.10;1.00
5218;DHT22;26539;51.064;6.346;2022-11-22T05:04:14;6.10;1.00
5218;DHT22;26539;51.064;6.346;2022-11-22T05:06:39;6.10;1.00
5218;DHT22;26539;51.064;6.346;2022-11-22T05:09:07;6.10;1.00
5218;DHT22;26539;51.064;6.346;2022-11-22T05:11:33;6.00;1.00
5218;DHT22;26539;51.064;6.346;2022-11-22T05:13:59;6.00;1.00
5218;DHT22;26539;51.064;6.346;2022-11-22T05:16:27;6.00;1.00
5218;DHT22;26539;51.064;6.346;2022-11-22T05:18:53;6.00;1.00
5218;DHT22;26539;51.064;6.346;2022-11-22T05:21:26;6.00;1.00
5218;DHT22;26539;51.064;6.346;2022-11-22T05:23:52;6.10;1.00
5218;DHT22;26539;51.064;6.346;2022-11-22T05:28:49;6.10;1.00
5218;DHT22;26539;51.064;6.346;2022-11-22T05:31:17;6.10;1.00
5218;DHT22;26539;51.064;6.346;2022-11-22T05:33:44;6.10;1.00
5218;DHT22;26539;51.064;6.346;2022-11-22T05:36:10;6.00;1.00
5218;DHT22;26539;51.064;6.346;2022-11-22T05:38:37;6.00;1.00
5218;DHT22;26539;51.064;6.346;2022-11-22T05:41:08;6.00;1.00
5218;DHT22;26539;51.064;6.346;2022-11-22T05:43:34;6.00;1.00
5218;DHT22;26539;51.064;6.346;2022-11-22T05:46:08;6.00;1.00
5218;DHT22;26539;51.064;6.346;2022-11-22T05:48:38;6.00;1.00
5218;DHT22;26539;51.064;6.346;2022-11-22T05:51:10;5.90;1.00
5218;DHT22;26539;51.064;6.346;2022-11-22T05:53:36;5.90;1.00
5218;DHT22;26539;51.064;6.346;2022-11-22T05:56:03;5.90;1.00
5218;DHT22;26539;51.064;6.346;2022-11-22T05:58:29;5.90;1.00
5218;DHT22;26539;51.064;6.346;2022-11-22T06:00:55;5.90;1.00
5218;DHT22;26539;51.064;6.346;2022-11-22T06:03:20;5.90;1.00
5218;DHT22;26539;51.064;6.346;2022-11-22T06:05:52;5.90;1.00
5218;DHT22;26539;51.064;6.346;2022-11-22T06:08:17;5.90;1.00
5218;DHT22;26539;51.064;6.346;2022-11-22T06:10:43;5.90;1.00
5218;DHT22;26539;51.064;6.346;2022-11-22T06:13:08;5.90;1.00
5218;DHT22;26539;51.064;6.346;2022-11-22T06:15:34;5.90;1.00
5218;DHT22;26539;51.064;6.346;2022-11-22T06:17:59;5.90;1.00
5218;DHT22;26539;51.064;6.346;2022-11-22T06:20:27;5.90;1.00
5218;DHT22;26539;51.064;6.346;2022-11-22T06:22:52;5.80;1.00
5218;DHT22;26539;51.064;6.346;2022-11-22T06:25:18;5.80;1.00
5218;DHT22;26539;51.064;6.346;2022-11-22T06:27:43;5.80;1.00
5218;DHT22;26539;51.064;6.346;2022-11-22T06:30:09;5.80;1.00
5218;DHT22;26539;51.064;6.346;2022-11-22T06:32:35;5.80;1.00
5218;DHT22;26539;51.064;6.346;2022-11-22T06:35:02;5.80;1.00
5218;DHT22;26539;51.064;6.346;2022-11-22T06:37:28;5.80;1.00
5218;DHT22;26539;51.064;6.346;2022-11-22T06:39:54;5.80;1.00
5218;DHT22;26539;51.064;6.346;2022-11-22T06:42:19;5.80;1.00
5218;DHT22;26539;51.064;6.346;2022-11-22T06:44:45;5.80;1.00
5218;DHT22;26539;51.064;6.346;2022-11-22T06:47:10;5.80;1.00
5218;DHT22;26539;51.064;6.346;2022-11-22T06:49:41;5.80;1.00
5218;DHT22;26539;51.064;6.346;2022-11-22T06:52:06;5.80;1.00
5218;DHT22;26539;51.064;6.346;2022-11-22T06:54:34;5.80;1.00
5218;DHT22;26539;51.064;6.346;2022-11-22T06:57:00;5.80;1.00
5218;DHT22;26539;51.064;6.346;2022-11-22T06:59:25;5.80;1.00
5218;DHT22;26539;51.064;6.346;2022-11-22T07:01:51;5.80;1.00
5218;DHT22;26539;51.064;6.346;2022-11-22T07:04:16;5.90;1.00
5218;DHT22;26539;51.064;6.346;2022-11-22T07:06:42;5.90;1.00
5218;DHT22;26539;51.064;6.346;2022-11-22T07:09:11;6.00;1.00
5218;DHT22;26539;51.064;6.346;2022-11-22T07:11:38;6.00;99.90
5218;DHT22;26539;51.064;6.346;2022-11-22T07:14:04;6.00;99.90
5218;DHT22;26539;51.064;6.346;2022-11-22T07:16:30;6.10;99.90
5218;DHT22;26539;51.064;6.346;2022-11-22T07:18:58;6.10;99.90
5218;DHT22;26539;51.064;6.346;2022-11-22T07:21:24;6.10;99.90
5218;DHT22;26539;51.064;6.346;2022-11-22T07:23:52;6.10;99.90
5218;DHT22;26539;51.064;6.346;2022-11-22T07:26:19;6.10;99.90
5218;DHT22;26539;51.064;6.346;2022-11-22T07:28:46;6.20;99.90
5218;DHT22;26539;51.064;6.346;2022-11-22T07:31:13;6.20;99.90
5218;DHT22;26539;51.064;6.346;2022-11-22T07:33:40;6.30;99.90
5218;DHT22;26539;51.064;6.346;2022-11-22T07:36:14;6.30;99.90
5218;DHT22;26539;51.064;6.346;2022-11-22T07:38:40;6.40;97.90
5218;DHT22;26539;51.064;6.346;2022-11-22T07:41:06;6.50;21.40
5218;DHT22;26539;51.064;6.346;2022-11-22T07:43:33;6.50;1.00
5218;DHT22;26539;51.064;6.346;2022-11-22T07:45:59;6.50;1.00
5218;DHT22;26539;51.064;6.346;2022-11-22T07:48:25;6.60;1.00
5218;DHT22;26539;51.064;6.346;2022-11-22T07:50:50;6.80;1.00
5218;DHT22;26539;51.064;6.346;2022-11-22T07:53:16;6.90;1.00
5218;DHT22;26539;51.064;6.346;2022-11-22T07:55:41;6.90;99.90
5218;DHT22;26539;51.064;6.346;2022-11-22T07:58:07;6.90;99.90
5218;DHT22;26539;51.064;6.346;2022-11-22T08:00:32;7.00;99.90
5218;DHT22;26539;51.064;6.346;2022-11-22T08:03:00;7.10;1.00
5218;DHT22;26539;51.064;6.346;2022-11-22T08:05:26;7.20;1.00
5218;DHT22;26539;51.064;6.346;2022-11-22T08:07:54;7.30;99.90
5218;DHT22;26539;51.064;6.346;2022-11-22T08:10:20;7.80;1.00
5218;DHT22;26539;51.064;6.346;2022-11-22T08:12:46;9.30;99.90
5218;DHT22;26539;51.064;6.346;2022-11-22T08:15:15;11.40;99.90
5218;DHT22;26539;51.064;6.346;2022-11-22T08:17:40;13.30;1.00
5218;DHT22;26539;51.064;6.346;2022-11-22T08:20:07;14.90;1.00
5218;DHT22;26539;51.064;6.346;2022-11-22T08:22:37;16.30;1.00
5218;DHT22;26539;51.064;6.346;2022-11-22T08:25:06;17.40;1.00
5218;DHT22;26539;51.064;6.346;2022-11-22T08:27:40;18.40;99.90
5218;DHT22;26539;51.064;6.346;2022-11-22T08:30:06;19.50;99.90
5218;DHT22;26539;51.064;6.346;2022-11-22T08:32:32;20.60;99.90
5218;DHT22;26539;51.064;6.346;2022-11-22T08:34:58;20.50;99.90
5218;DHT22;26539;51.064;6.346;2022-11-22T08:37:23;19.00;99.90
5218;DHT22;26539;51.064;6.346;2022-11-22T08:39:48;17.60;99.90
5218;DHT22;26539;51.064;6.346;2022-11-22T08:42:14;16.20;99.90
5218;DHT22;26539;51.064;6.346;2022-11-22T08:44:42;15.40;99.90
5218;DHT22;26539;51.064;6.346;2022-11-22T08:47:07;14.90;99.90
5218;DHT22;26539;51.064;6.346;2022-11-22T08:49:33;14.80;99.90
5218;DHT22;26539;51.064;6.346;2022-11-22T08:51:58;14.70;99.90
5218;DHT22;26539;51.064;6.346;2022-11-22T08:54:24;15.10;99.90
5218;DHT22;26539;51.064;6.346;2022-11-22T08:56:57;14.80;99.90
5218;DHT22;26539;51.064;6.346;2022-11-22T08:59:22;14.50;99.90
5218;DHT22;26539;51.064;6.346;2022-11-22T09:01:48;13.90;99.90
5218;DHT22;26539;51.064;6.346;2022-11-22T09:04:15;13.30;99.90
5218;DHT22;26539;51.064;6.346;2022-11-22T09:06:40;13.00;99.90
5218;DHT22;26539;51.064;6.346;2022-11-22T09:09:06;13.10;99.90
5218;DHT22;26539;51.064;6.346;2022-11-22T09:11:31;13.00;99.90
5218;DHT22;26539;51.064;6.346;2022-11-22T09:13:57;12.70;99.90
5218;DHT22;26539;51.064;6.346;2022-11-22T09:16:22;12.30;99.90
5218;DHT22;26539;51.064;6.346;2022-11-22T09:18:48;12.00;99.90
5218;DHT22;26539;51.064;6.346;2022-11-22T09:21:16;11.70;99.90
5218;DHT22;26539;51.064;6.346;2022-11-22T09:23:46;11.60;99.90
5218;DHT22;26539;51.064;6.346;2022-11-22T09:26:17;11.80;99.90
5218;DHT22;26539;51.064;6.346;2022-11-22T09:28:43;11.70;99.90
5218;DHT22;26539;51.064;6.346;2022-11-22T09:31:14;11.50;99.90
5218;DHT22;26539;51.064;6.346;2022-11-22T09:33:46;11.40;99.90
5218;DHT22;26539;51.064;6.346;2022-11-22T09:36:21;11.30;99.90
5218;DHT22;26539;51.064;6.346;2022-11-22T09:38:47;11.50;99.90
5218;DHT22;26539;51.064;6.346;2022-11-22T09:43:48;11.80;99.90
5218;DHT22;26539;51.064;6.346;2022-11-22T09:52:07;12.80;99.90
5218;DHT22;26539;51.064;6.346;2022-11-22T09:55:05;13.00;99.90
5218;DHT22;26539;51.064;6.346;2022-11-22T09:58:01;12.90;99.90
5218;DHT22;26539;51.064;6.346;2022-11-22T10:00:28;12.80;99.90
5218;DHT22;26539;51.064;6.346;2022-11-22T10:03:04;12.70;99.90
5218;DHT22;26539;51.064;6.346;2022-11-22T10:05:57;12.50;99.90
5218;DHT22;26539;51.064;6.346;2022-11-22T10:11:24;12.20;99.90
5218;DHT22;26539;51.064;6.346;2022-11-22T10:13:58;12.10;99.90
5218;DHT22;26539;51.064;6.346;2022-11-22T10:16:32;12.00;99.90
5218;DHT22;26539;51.064;6.346;2022-11-22T10:21:28;12.00;99.90
5218;DHT22;26539;51.064;6.346;2022-11-22T10:23:54;12.00;99.90
5218;DHT22;26539;51.064;6.346;2022-11-22T10:26:21;12.10;99.90
5218;DHT22;26539;51.064;6.346;2022-11-22T10:28:58;12.20;99.90
5218;DHT22;26539;51.064;6.346;2022-11-22T10:45:35;12.80;99.90
5218;DHT22;26539;51.064;6.346;2022-11-22T10:51:15;12.70;99.90
5218;DHT22;26539;51.064;6.346;2022-11-22T10:53:58;12.70;99.90
5218;DHT22;26539;51.064;6.346;2022-11-22T11:02:30;13.10;99.90
5218;DHT22;26539;51.064;6.346;2022-11-22T11:04:59;13.20;99.90
5218;DHT22;26539;51.064;6.346;2022-11-22T11:07:28;13.50;99.90
5218;DHT22;26539;51.064;6.346;2022-11-22T11:10:00;13.70;99.90
5218;DHT22;26539;51.064;6.346;2022-11-22T11:12:41;13.80;99.90
5218;DHT22;26539;51.064;6.346;2022-11-22T11:15:23;13.60;99.90
5218;DHT22;26539;51.064;6.346;2022-11-22T11:18:01;13.50;99.90
5218;DHT22;26539;51.064;6.346;2022-11-22T11:20:30;13.20;99.90
5218;DHT22;26539;51.064;6.346;2022-11-22T11:22:57;13.10;99.90
5218;DHT22;26539;51.064;6.346;2022-11-22T11:25:31;13.00;99.90
5218;DHT22;26539;51.064;6.346;2022-11-22T11:28:04;12.80;99.90
5218;DHT22;26539;51.064;6.346;2022-11-22T11:35:45;12.50;99.90
5218;DHT22;26539;51.064;6.346;2022-11-22T11:38:35;12.50;99.90
5218;DHT22;26539;51.064;6.346;2022-11-22T11:41:24;12.40;99.90
5218;DHT22;26539;51.064;6.346;2022-11-22T11:43:52;12.40;99.90
5218;DHT22;26539;51.064;6.346;2022-11-22T11:46:24;12.40;99.90
5218;DHT22;26539;51.064;6.346;2022-11-22T11:48:52;12.30;99.90
5218;DHT22;26539;51.064;6.346;2022-11-22T11:54:04;12.20;99.90
5218;DHT22;26539;51.064;6.346;2022-11-22T11:59:22;11.90;99.90
5218;DHT22;26539;51.064;6.346;2022-11-22T12:01:56;11.70;99.90
5218;DHT22;26539;51.064;6.346;2022-11-22T12:04:28;11.70;99.90
5218;DHT22;26539;51.064;6.346;2022-11-22T12:07:25;11.60;99.90
5218;DHT22;26539;51.064;6.346;2022-11-22T12:09:52;11.50;99.90
5218;DHT22;26539;51.064;6.346;2022-11-22T12:15:24;11.50;99.90
5218;DHT22;26539;51.064;6.346;2022-11-22T12:20:49;11.40;99.90
5218;DHT22;26539;51.064;6.346;2022-11-22T12:25:52;11.30;99.90
5218;DHT22;26539;51.064;6.346;2022-11-22T12:28:22;11.30;99.90
5218;DHT22;26539;51.064;6.346;2022-11-22T12:30:54;11.30;99.90
5218;DHT22;26539;51.064;6.346;2022-11-22T12:33:29;11.20;99.90
5218;DHT22;26539;51.064;6.346;2022-11-22T12:35:57;11.10;99.90
5218;DHT22;26539;51.064;6.346;2022-11-22T12:38:27;11.10;99.90
5218;DHT22;26539;51.064;6.346;2022-11-22T12:40:58;11.00;99.90
5218;DHT22;26539;51.064;6.346;2022-11-22T12:43:41;11.00;99.90
5218;DHT22;26539;51.064;6.346;2022-11-22T12:46:17;11.00;99.90
5218;DHT22;26539;51.064;6.346;2022-11-22T12:48:47;11.00;99.90
5218;DHT22;26539;51.064;6.346;2022-11-22T12:51:29;11.00;99.90
5218;DHT22;26539;51.064;6.346;2022-11-22T12:54:05;11.00;99.90
5218;DHT22;26539;51.064;6.346;2022-11-22T12:56:50;10.90;99.90
5218;DHT22;26539;51.064;6.346;2022-11-22T12:59:31;10.80;99.90
5218;DHT22;26539;51.064;6.346;2022-11-22T13:02:22;10.80;99.90
5218;DHT22;26539;51.064;6.346;2022-11-22T13:07:25;10.70;99.90
5218;DHT22;26539;51.064;6.346;2022-11-22T13:10:02;10.60;99.90
5218;DHT22;26539;51.064;6.346;2022-11-22T13:12:33;10.60;99.90
5218;DHT22;26539;51.064;6.346;2022-11-22T13:15:00;10.70;99.90
5218;DHT22;26539;51.064;6.346;2022-11-22T13:17:34;10.70;99.90
5218;DHT22;26539;51.064;6.346;2022-11-22T13:20:17;10.80;99.90
5218;DHT22;26539;51.064;6.346;2022-11-22T13:25:42;10.70;99.90
5218;DHT22;26539;51.064;6.346;2022-11-22T13:28:16;10.60;99.90
5218;DHT22;26539;51.064;6.346;2022-11-22T13:33:39;10.60;99.90
5218;DHT22;26539;51.064;6.346;2022-11-22T13:38:56;10.50;99.90
5218;DHT22;26539;51.064;6.346;2022-11-22T13:44:22;10.40;99.90
5218;DHT22;26539;51.064;6.346;2022-11-22T13:51:58;10.40;1.00
5218;DHT22;26539;51.064;6.346;2022-11-22T13:57:21;10.40;1.00
5218;DHT22;26539;51.064;6.346;2022-11-22T14:05:35;10.40;1.00
5218;DHT22;26539;51.064;6.346;2022-11-22T14:08:03;10.40;1.00
5218;DHT22;26539;51.064;6.346;2022-11-22T14:13:06;10.40;1.00
5218;DHT22;26539;51.064;6.346;2022-11-22T14:18:39;10.40;1.00
5218;DHT22;26539;51.064;6.346;2022-11-22T14:32:13;10.30;1.00
5218;DHT22;26539;51.064;6.346;2022-11-22T14:50:37;10.00;1.00
5218;DHT22;26539;51.064;6.346;2022-11-22T14:53:32;10.00;1.00
5218;DHT22;26539;51.064;6.346;2022-11-22T14:58:39;10.20;1.00
5218;DHT22;26539;51.064;6.346;2022-11-22T15:04:16;10.10;12.40
5218;DHT22;26539;51.064;6.346;2022-11-22T15:10:12;10.00;99.90
5218;DHT22;26539;51.064;6.346;2022-11-22T15:15:36;9.90;99.90
5218;DHT22;26539;51.064;6.346;2022-11-22T15:20:38;9.80;99.90
5218;DHT22;26539;51.064;6.346;2022-11-22T15:23:25;9.70;99.90
5218;DHT22;26539;51.064;6.346;2022-11-22T15:26:02;9.70;1.00
5218;DHT22;26539;51.064;6.346;2022-11-22T15:28:28;9.70;1.00
5218;DHT22;26539;51.064;6.346;2022-11-22T15:30:58;9.70;1.00
5218;DHT22;26539;51.064;6.346;2022-11-22T15:33:29;9.60;1.00
5218;DHT22;26539;51.064;6.346;2022-11-22T15:36:01;9.60;76.00
5218;DHT22;26539;51.064;6.346;2022-11-22T15:38:29;9.60;99.90
5218;DHT22;26539;51.064;6.346;2022-11-22T15:40:55;9.50;99.90
5218;DHT22;26539;51.064;6.346;2022-11-22T15:43:25;9.50;99.90
5218;DHT22;26539;51.064;6.346;2022-11-22T15:45:52;9.50;1.00
5218;DHT22;26539;51.064;6.346;2022-11-22T15:48:21;9.50;1.00
5218;DHT22;26539;51.064;6.346;2022-11-22T15:53:29;9.50;1.00
5218;DHT22;26539;51.064;6.346;2022-11-22T15:58:37;9.50;99.90
5218;DHT22;26539;51.064;6.346;2022-11-22T16:01:04;9.40;99.90
5218;DHT22;26539;51.064;6.346;2022-11-22T16:03:39;9.40;1.00
5218;DHT22;26539;51.064;6.346;2022-11-22T16:06:12;9.30;99.90
5218;DHT22;26539;51.064;6.346;2022-11-22T16:08:47;9.30;1.00
5218;DHT22;26539;51.064;6.346;2022-11-22T16:11:19;9.20;99.90
5218;DHT22;26539;51.064;6.346;2022-11-22T16:13:45;9.20;99.90
5218;DHT22;26539;51.064;6.346;2022-11-22T16:18:38;9.20;1.10
5218;DHT22;26539;51.064;6.346;2022-11-22T16:23:39;9.20;1.00
5218;DHT22;26539;51.064;6.346;2022-11-22T16:28:43;9.10;44.20
5218;DHT22;26539;51.064;6.346;2022-11-22T16:31:22;9.10;99.90
5218;DHT22;26539;51.064;6.346;2022-11-22T16:33:49;9.10;99.90
5218;DHT22;26539;51.064;6.346;2022-11-22T16:36:18;9.10;1.00
5218;DHT22;26539;51.064;6.346;2022-11-22T16:38:44;9.10;1.00
5218;DHT22;26539;51.064;6.346;2022-11-22T16:41:16;9.10;1.00
5218;DHT22;26539;51.064;6.346;2022-11-22T16:43:42;9.00;37.20
5218;DHT22;26539;51.064;6.346;2022-11-22T16:46:12;9.00;99.90
5218;DHT22;26539;51.064;6.346;2022-11-22T16:48:38;9.00;99.90
5218;DHT22;26539;51.064;6.346;2022-11-22T16:51:06;9.00;99.90
5218;DHT22;26539;51.064;6.346;2022-11-22T16:53:50;8.90;1.00
5218;DHT22;26539;51.064;6.346;2022-11-22T16:56:19;8.90;1.00
5218;DHT22;26539;51.064;6.346;2022-11-22T16:58:46;8.90;1.00
5218;DHT22;26539;51.064;6.346;2022-11-22T17:01:13;8.90;1.00
5218;DHT22;26539;51.064;6.346;2022-11-22T17:03:44;8.90;1.00
5218;DHT22;26539;51.064;6.346;2022-11-22T17:06:18;8.90;1.00
5218;DHT22;26539;51.064;6.346;2022-11-22T17:08:48;8.90;1.00
5218;DHT22;26539;51.064;6.346;2022-11-22T17:11:16;8.90;1.00
5218;DHT22;26539;51.064;6.346;2022-11-22T17:13:42;8.90;1.00
5218;DHT22;26539;51.064;6.346;2022-11-22T17:16:09;8.90;1.00
5218;DHT22;26539;51.064;6.346;2022-11-22T17:18:35;9.00;1.00
5218;DHT22;26539;51.064;6.346;2022-11-22T17:21:01;9.00;1.00
5218;DHT22;26539;51.064;6.346;2022-11-22T17:23:34;9.00;1.00
5218;DHT22;26539;51.064;6.346;2022-11-22T17:26:03;9.00;1.00
5218;DHT22;26539;51.064;6.346;2022-11-22T17:28:29;9.00;1.00
5218;DHT22;26539;51.064;6.346;2022-11-22T17:30:58;9.00;1.00
5218;DHT22;26539;51.064;6.346;2022-11-22T17:33:24;9.00;1.00
5218;DHT22;26539;51.064;6.346;2022-11-22T17:35:51;9.00;1.00
5218;DHT22;26539;51.064;6.346;2022-11-22T17:38:16;9.00;1.00
5218;DHT22;26539;51.064;6.346;2022-11-22T17:40:42;9.00;2.70
5218;DHT22;26539;51.064;6.346;2022-11-22T17:43:10;9.00;4.60
5218;DHT22;26539;51.064;6.346;2022-11-22T17:45:39;9.00;11.10
5218;DHT22;26539;51.064;6.346;2022-11-22T17:48:08;9.10;20.70
5218;DHT22;26539;51.064;6.346;2022-11-22T17:50:34;9.10;32.80
5218;DHT22;26539;51.064;6.346;2022-11-22T17:52:59;9.10;48.80
5218;DHT22;26539;51.064;6.346;2022-11-22T17:55:25;9.10;74.20
5218;DHT22;26539;51.064;6.346;2022-11-22T17:57:50;9.10;80.60
5218;DHT22;26539;51.064;6.346;2022-11-22T18:00:16;9.10;86.70
5218;DHT22;26539;51.064;6.346;2022-11-22T18:02:41;9.10;90.60
5218;DHT22;26539;51.064;6.346;2022-11-22T18:05:07;9.10;97.00
5218;DHT22;26539;51.064;6.346;2022-11-22T18:07:34;9.10;90.80
5218;DHT22;26539;51.064;6.346;2022-11-22T18:10:00;9.20;99.90
5218;DHT22;26539;51.064;6.346;2022-11-22T18:12:26;9.20;89.80
5218;DHT22;26539;51.064;6.346;2022-11-22T18:14:51;9.20;89.10
5218;DHT22;26539;51.064;6.346;2022-11-22T18:17:17;9.20;52.10
5218;DHT22;26539;51.064;6.346;2022-11-22T18:19:43;9.20;29.50
5218;DHT22;26539;51.064;6.346;2022-11-22T18:22:08;9.30;11.40
5218;DHT22;26539;51.064;6.346;2022-11-22T18:24:34;9.30;1.00
5218;DHT22;26539;51.064;6.346;2022-11-22T18:27:00;9.30;1.00
5218;DHT22;26539;51.064;6.346;2022-11-22T18:29:25;9.30;1.00
5218;DHT22;26539;51.064;6.346;2022-11-22T18:31:51;9.30;1.00
5218;DHT22;26539;51.064;6.346;2022-11-22T18:34:16;9.30;1.00
5218;DHT22;26539;51.064;6.346;2022-11-22T18:36:42;9.40;1.00
5218;DHT22;26539;51.064;6.346;2022-11-22T18:39:10;9.40;1.00
5218;DHT22;26539;51.064;6.346;2022-11-22T18:41:35;9.40;1.00
5218;DHT22;26539;51.064;6.346;2022-11-22T18:44:01;9.40;1.00
5218;DHT22;26539;51.064;6.346;2022-11-22T18:46:26;9.50;1.00
5218;DHT22;26539;51.064;6.346;2022-11-22T18:48:52;9.50;1.00
5218;DHT22;26539;51.064;6.346;2022-11-22T18:51:17;9.50;99.90
5218;DHT22;26539;51.064;6.346;2022-11-22T18:53:46;9.50;99.90
5218;DHT22;26539;51.064;6.346;2022-11-22T18:56:17;9.50;99.90
5218;DHT22;26539;51.064;6.346;2022-11-22T18:58:43;9.60;99.90
5218;DHT22;26539;51.064;6.346;2022-11-22T19:01:13;9.60;99.90
5218;DHT22;26539;51.064;6.346;2022-11-22T19:03:39;9.60;99.90
5218;DHT22;26539;51.064;6.346;2022-11-22T19:06:06;9.60;16.70
5218;DHT22;26539;51.064;6.346;2022-11-22T19:08:36;9.60;1.00
5218;DHT22;26539;51.064;6.346;2022-11-22T19:11:01;9.60;1.00
5218;DHT22;26539;51.064;6.346;2022-11-22T19:13:27;9.60;1.00
5218;DHT22;26539;51.064;6.346;2022-11-22T19:16:09;9.60;1.00
5218;DHT22;26539;51.064;6.346;2022-11-22T19:18:39;9.70;99.90
5218;DHT22;26539;51.064;6.346;2022-11-22T19:21:30;9.70;99.90
5218;DHT22;26539;51.064;6.346;2022-11-22T19:23:58;9.70;99.90
5218;DHT22;26539;51.064;6.346;2022-11-22T19:26:26;9.70;51.40